Time;durP1;ratioP1;P1;durP2;ratioP2;P2;SDS_P1;SDS_P2;PMS_P1;PMS_P2;Temp;Humidity;BMP_temperature;BMP_pressure;BME280_temperature;BME280_humidity;BME280_pressure;Samples;Min_cycle;Max_cycle;Signal;HPM_P1;HPM_P2
2023/05/01 00:00:59;;;;;;;14.00;7.65;;;;;;;;;;5016232;28;20136;-89
2023/05/01 00:03:26;;;;;;;15.52;7.57;;;;;;;;;;5015758;28;20049;-90
2023/05/01 00:05:59;;;;;;;18.38;7.90;;;;;;;;;;5015386;28;20049;-90
2023/05/01 00:08:26;;;;;;;12.55;7.43;;;;;;;;;;5014770;28;20548;-90
2023/05/01 00:10:54;;;;;;;14.90;7.15;;;;;;;;;;5015016;28;20058;-90
2023/05/01 00:13:23;;;;;;;14.52;7.22;;;;;;;;;;5016032;28;20538;-89
2023/05/01 00:15:51;;;;;;;11.88;7.82;;;;;;;;;;5014926;28;20136;-89
2023/05/01 00:18:18;;;;;;;12.77;8.38;;;;;;;;;;5014853;28;20060;-90
2023/05/01 00:20:45;;;;;;;14.45;8.48;;;;;;;;;;5014654;28;20050;-89
2023/05/01 00:23:13;;;;;;;17.05;9.82;;;;;;;;;;5014341;28;20140;-90
2023/05/01 00:25:40;;;;;;;12.73;8.68;;;;;;;;;;5015497;28;20087;-89
2023/05/01 00:28:07;;;;;;;15.15;8.70;;;;;;;;;;5015539;28;20192;-90
2023/05/01 00:30:35;;;;;;;12.32;8.00;;;;;;;;;;5015389;28;20050;-90
2023/05/01 00:33:02;;;;;;;12.55;8.07;;;;;;;;;;5014918;28;20053;-91
2023/05/01 00:35:30;;;;;;;11.65;7.72;;;;;;;;;;5022087;28;20061;-90
2023/05/01 00:37:57;;;;;;;17.27;7.85;;;;;;;;;;5015934;28;20054;-90
2023/05/01 00:40:24;;;;;;;17.80;8.23;;;;;;;;;;5014664;28;20056;-90
2023/05/01 00:42:51;;;;;;;10.68;7.43;;;;;;;;;;5015683;28;20502;-90
2023/05/01 00:45:19;;;;;;;12.68;8.35;;;;;;;;;;5013948;28;20052;-89
2023/05/01 00:47:46;;;;;;;16.48;7.95;;;;;;;;;;5014243;28;20054;-90
2023/05/01 00:50:14;;;;;;;12.18;8.38;;;;;;;;;;5012999;28;20099;-88
2023/05/01 00:52:41;;;;;;;12.32;8.43;;;;;;;;;;5013964;28;20046;-87
2023/05/01 00:55:09;;;;;;;12.65;8.25;;;;;;;;;;5015451;28;20060;-87
2023/05/01 00:57:36;;;;;;;11.90;7.72;;;;;;;;;;5014102;28;20057;-90
2023/05/01 01:00:04;;;;;;;12.90;9.15;;;;;;;;;;5014029;28;20049;-90
2023/05/01 01:02:31;;;;;;;17.40;8.63;;;;;;;;;;5014220;28;20054;-90
2023/05/01 01:04:59;;;;;;;16.17;8.48;;;;;;;;;;5013965;28;20491;-90
2023/05/01 01:07:29;;;;;;;16.45;9.07;;;;;;;;;;5013734;28;20410;-89
2023/05/01 01:10:17;;;;;;;15.27;8.63;;;;;;;;;;5013924;28;20085;-89
2023/05/01 01:13:03;;;;;;;18.25;9.57;;;;;;;;;;5014859;28;20410;-89
2023/05/01 01:15:35;;;;;;;16.80;9.38;;;;;;;;;;5013780;28;20538;-90
2023/05/01 01:18:06;;;;;;;17.93;9.93;;;;;;;;;;5013597;28;20057;-90
2023/05/01 01:20:43;;;;;;;13.43;8.57;;;;;;;;;;5014490;28;20085;-90
2023/05/01 01:23:25;;;;;;;11.13;8.00;;;;;;;;;;5014645;28;20482;-90
2023/05/01 01:26:11;;;;;;;16.33;8.75;;;;;;;;;;5014835;28;20145;-89
2023/05/01 01:28:54;;;;;;;19.38;8.48;;;;;;;;;;5013586;28;20053;-90
2023/05/01 01:31:22;;;;;;;17.52;8.93;;;;;;;;;;5013322;28;20502;-90
2023/05/01 01:33:56;;;;;;;11.73;8.48;;;;;;;;;;5013764;28;20410;-90
2023/05/01 01:36:33;;;;;;;16.15;9.48;;;;;;;;;;5013501;28;20054;-90
2023/05/01 01:39:05;;;;;;;14.88;9.13;;;;;;;;;;5013926;28;20387;-90
2023/05/01 01:41:36;;;;;;;15.98;9.38;;;;;;;;;;5013931;28;20089;-90
2023/05/01 01:44:07;;;;;;;16.05;9.57;;;;;;;;;;5013388;28;20225;-90
2023/05/01 01:46:36;;;;;;;13.95;9.82;;;;;;;;;;5014325;28;20053;-89
2023/05/01 01:49:06;;;;;;;17.20;9.98;;;;;;;;;;5020956;28;20084;-89
2023/05/01 01:51:35;;;;;;;18.38;9.43;;;;;;;;;;5013431;28;20054;-89
2023/05/01 01:54:04;;;;;;;16.33;9.50;;;;;;;;;;5014110;28;20050;-89
2023/05/01 01:56:32;;;;;;;15.38;9.02;;;;;;;;;;5014127;28;20053;-89
2023/05/01 01:59:01;;;;;;;13.75;9.38;;;;;;;;;;5013206;28;20533;-89
2023/05/01 02:01:28;;;;;;;17.55;8.90;;;;;;;;;;5012616;28;20054;-89
2023/05/01 02:03:56;;;;;;;17.95;9.50;;;;;;;;;;5012470;28;20092;-89
2023/05/01 02:06:24;;;;;;;13.23;9.35;;;;;;;;;;5013408;28;20046;-89
2023/05/01 02:08:53;;;;;;;12.98;8.35;;;;;;;;;;5012962;28;20413;-89
2023/05/01 02:11:21;;;;;;;16.10;9.02;;;;;;;;;;5012771;28;20470;-90
2023/05/01 02:13:49;;;;;;;13.65;8.43;;;;;;;;;;5013847;28;20482;-89
2023/05/01 02:16:17;;;;;;;12.63;8.50;;;;;;;;;;5012880;28;20387;-89
2023/05/01 02:18:45;;;;;;;16.55;8.57;;;;;;;;;;5012843;28;20046;-89
2023/05/01 02:21:13;;;;;;;12.77;9.20;;;;;;;;;;5013418;28;20504;-89
2023/05/01 02:23:41;;;;;;;16.40;9.00;;;;;;;;;;5013810;28;20053;-89
2023/05/01 02:26:12;;;;;;;15.30;9.13;;;;;;;;;;5015013;28;20135;-90
2023/05/01 02:28:40;;;;;;;18.40;8.85;;;;;;;;;;5012536;28;20065;-89
2023/05/01 02:31:07;;;;;;;12.80;9.32;;;;;;;;;;5012342;28;20077;-88
2023/05/01 02:33:34;;;;;;;14.18;9.07;;;;;;;;;;5013280;28;20395;-90
2023/05/01 02:36:04;;;;;;;16.15;9.60;;;;;;;;;;5013579;28;20290;-89
2023/05/01 02:38:31;;;;;;;20.58;9.63;;;;;;;;;;5013403;28;20561;-89
2023/05/01 02:41:00;;;;;;;14.93;9.77;;;;;;;;;;5012251;28;20054;-89
2023/05/01 02:43:28;;;;;;;14.35;9.30;;;;;;;;;;5012738;28;20495;-89
2023/05/01 02:45:57;;;;;;;15.07;9.77;;;;;;;;;;5012641;28;20046;-89
2023/05/01 02:48:26;;;;;;;13.98;9.30;;;;;;;;;;5012452;28;20061;-89
2023/05/01 02:50:54;;;;;;;13.15;9.18;;;;;;;;;;5012935;28;20056;-90
2023/05/01 02:53:22;;;;;;;15.88;10.00;;;;;;;;;;5013421;28;20064;-89
2023/05/01 02:55:50;;;;;;;19.40;10.80;;;;;;;;;;5012566;28;20050;-89
2023/05/01 02:58:18;;;;;;;18.35;10.25;;;;;;;;;;5012378;28;20056;-89
2023/05/01 03:00:45;;;;;;;13.77;9.90;;;;;;;;;;5013273;28;20065;-90
2023/05/01 03:03:13;;;;;;;22.73;11.52;;;;;;;;;;5017348;28;20056;-89
2023/05/01 03:05:40;;;;;;;12.48;10.13;;;;;;;;;;5013911;28;20046;-89
2023/05/01 03:08:09;;;;;;;19.58;10.10;;;;;;;;;;5012270;28;20050;-89
2023/05/01 03:10:41;;;;;;;22.33;11.20;;;;;;;;;;5012421;28;20141;-89
2023/05/01 03:13:09;;;;;;;22.73;12.05;;;;;;;;;;5012535;28;20104;-89
2023/05/01 03:15:37;;;;;;;16.63;10.73;;;;;;;;;;5015403;28;20054;-89
2023/05/01 03:18:05;;;;;;;13.63;10.15;;;;;;;;;;5016362;28;20050;-89
2023/05/01 03:20:32;;;;;;;23.52;13.90;;;;;;;;;;5015607;28;20504;-89
2023/05/01 03:23:00;;;;;;;24.52;15.23;;;;;;;;;;5016863;28;20062;-89
2023/05/01 03:25:27;;;;;;;22.90;14.82;;;;;;;;;;5015901;28;20129;-89
2023/05/01 03:27:54;;;;;;;19.50;13.50;;;;;;;;;;5016804;28;20049;-89
2023/05/01 03:30:22;;;;;;;26.10;16.13;;;;;;;;;;5015929;28;20081;-89
2023/05/01 03:32:50;;;;;;;31.13;21.67;;;;;;;;;;5016755;28;20474;-89
2023/05/01 03:35:18;;;;;;;27.42;16.80;;;;;;;;;;5015678;28;20042;-89
2023/05/01 03:37:45;;;;;;;27.75;15.93;;;;;;;;;;5016666;28;20061;-89
2023/05/01 03:40:12;;;;;;;27.10;16.95;;;;;;;;;;5015473;28;20128;-89
2023/05/01 03:42:40;;;;;;;16.88;11.65;;;;;;;;;;5015487;28;20524;-89
2023/05/01 03:45:07;;;;;;;17.42;10.52;;;;;;;;;;5015598;28;20052;-89
2023/05/01 03:47:35;;;;;;;18.38;10.50;;;;;;;;;;5015381;28;20057;-89
2023/05/01 03:50:02;;;;;;;20.58;10.88;;;;;;;;;;5016496;28;20100;-89
2023/05/01 03:52:30;;;;;;;20.90;11.18;;;;;;;;;;5015315;28;20060;-89
2023/05/01 03:54:57;;;;;;;15.40;11.15;;;;;;;;;;5016345;28;20046;-89
2023/05/01 03:57:24;;;;;;;17.45;11.27;;;;;;;;;;5015298;28;20387;-89
2023/05/01 03:59:51;;;;;;;17.23;11.90;;;;;;;;;;5015738;28;20049;-89
2023/05/01 04:02:19;;;;;;;18.30;12.77;;;;;;;;;;5016111;28;20418;-89
2023/05/01 04:04:46;;;;;;;17.92;12.73;;;;;;;;;;5016129;28;20093;-89
2023/05/01 04:07:14;;;;;;;21.13;13.00;;;;;;;;;;5015930;28;20508;-89
2023/05/01 04:09:41;;;;;;;19.40;12.15;;;;;;;;;;5014982;28;20052;-90
2023/05/01 04:12:08;;;;;;;22.45;13.60;;;;;;;;;;5016001;28;20414;-89
2023/05/01 04:14:35;;;;;;;21.25;12.98;;;;;;;;;;5014804;28;20053;-89
2023/05/01 04:17:03;;;;;;;21.00;12.77;;;;;;;;;;5018219;28;20049;-89
2023/05/01 04:19:30;;;;;;;21.83;13.00;;;;;;;;;;5015801;28;20073;-89
2023/05/01 04:21:57;;;;;;;25.58;12.70;;;;;;;;;;5015535;28;20148;-90
2023/05/01 04:24:24;;;;;;;22.85;13.82;;;;;;;;;;5014277;28;20050;-89
2023/05/01 04:26:51;;;;;;;18.20;12.20;;;;;;;;;;5015741;28;20062;-89
2023/05/01 04:29:19;;;;;;;23.80;13.30;;;;;;;;;;5014420;28;20048;-89
2023/05/01 04:31:46;;;;;;;22.95;12.70;;;;;;;;;;5014774;28;20487;-88
2023/05/01 04:34:14;;;;;;;30.05;14.65;;;;;;;;;;5015300;28;20129;-90
2023/05/01 04:36:41;;;;;;;23.40;14.35;;;;;;;;;;5014160;28;20419;-89
2023/05/01 04:39:09;;;;;;;22.67;15.32;;;;;;;;;;5014250;28;20529;-89
2023/05/01 04:41:36;;;;;;;27.30;15.60;;;;;;;;;;5015102;28;20116;-89
2023/05/01 04:44:04;;;;;;;28.90;16.67;;;;;;;;;;5015240;28;20418;-89
2023/05/01 04:46:32;;;;;;;28.40;17.48;;;;;;;;;;5014051;28;20046;-89
2023/05/01 04:48:59;;;;;;;26.08;16.00;;;;;;;;;;5014231;28;20053;-89
2023/05/01 04:51:27;;;;;;;27.38;15.93;;;;;;;;;;5013968;28;20053;-89
2023/05/01 04:53:55;;;;;;;28.75;15.77;;;;;;;;;;5014182;28;20049;-89
2023/05/01 04:56:22;;;;;;;26.60;15.02;;;;;;;;;;5013733;28;20406;-89
2023/05/01 04:58:49;;;;;;;24.70;16.45;;;;;;;;;;5014096;28;20049;-90
2023/05/01 05:01:16;;;;;;;24.58;15.70;;;;;;;;;;5014200;28;20049;-90
2023/05/01 05:03:43;;;;;;;27.27;16.08;;;;;;;;;;5015155;28;20054;-90
2023/05/01 05:06:15;;;;;;;22.98;15.07;;;;;;;;;;5013943;28;20550;-90
2023/05/01 05:08:43;;;;;;;27.42;15.52;;;;;;;;;;5013599;28;20049;-90
2023/05/01 05:11:10;;;;;;;27.25;17.13;;;;;;;;;;5014139;28;20069;-90
2023/05/01 05:13:37;;;;;;;26.02;17.48;;;;;;;;;;5013758;28;20052;-89
2023/05/01 05:16:05;;;;;;;24.80;16.83;;;;;;;;;;5013669;28;20046;-90
2023/05/01 05:18:32;;;;;;;31.98;17.98;;;;;;;;;;5013533;28;20046;-90
2023/05/01 05:21:02;;;;;;;34.50;19.35;;;;;;;;;;5013247;28;20406;-90
2023/05/01 05:23:30;;;;;;;26.55;15.98;;;;;;;;;;5013391;28;20522;-90
2023/05/01 05:26:00;;;;;;;26.85;14.70;;;;;;;;;;5013698;28;20046;-90
2023/05/01 05:28:27;;;;;;;18.02;13.32;;;;;;;;;;5013446;28;20052;-90
2023/05/01 05:30:55;;;;;;;22.88;12.07;;;;;;;;;;5015213;28;20046;-90
2023/05/01 05:33:23;;;;;;;14.57;10.95;;;;;;;;;;5017249;28;20053;-90
2023/05/01 05:35:51;;;;;;;18.45;9.82;;;;;;;;;;5012682;28;20088;-90
2023/05/01 05:38:19;;;;;;;13.48;8.98;;;;;;;;;;5014185;28;20054;-90
2023/05/01 05:40:46;;;;;;;12.05;8.13;;;;;;;;;;5013402;28;20042;-90
2023/05/01 05:43:13;;;;;;;14.18;8.88;;;;;;;;;;5012934;28;20497;-90
2023/05/01 05:45:40;;;;;;;14.95;8.52;;;;;;;;;;5012812;28;20072;-90
2023/05/01 05:48:08;;;;;;;13.23;8.00;;;;;;;;;;5013015;28;20046;-90
2023/05/01 05:50:35;;;;;;;16.80;8.73;;;;;;;;;;5012911;28;20053;-90
2023/05/01 05:53:02;;;;;;;20.35;7.97;;;;;;;;;;5013587;28;20053;-90
2023/05/01 05:55:29;;;;;;;14.93;8.65;;;;;;;;;;5013632;28;20200;-90
2023/05/01 05:57:57;;;;;;;15.90;8.32;;;;;;;;;;5013033;28;20056;-91
2023/05/01 06:00:24;;;;;;;17.70;8.75;;;;;;;;;;5012916;28;20045;-90
2023/05/01 06:02:51;;;;;;;15.85;8.90;;;;;;;;;;5012931;28;20431;-90
2023/05/01 06:05:19;;;;;;;13.82;8.68;;;;;;;;;;5013764;28;20050;-90
2023/05/01 06:07:46;;;;;;;16.05;8.90;;;;;;;;;;5014025;28;20056;-91
2023/05/01 06:10:13;;;;;;;28.38;9.02;;;;;;;;;;5012984;28;20050;-90
2023/05/01 06:12:41;;;;;;;23.95;8.60;;;;;;;;;;5012488;28;20455;-90
2023/05/01 06:15:18;;;;;;;17.55;8.93;;;;;;;;;;5012629;28;20058;-90
2023/05/01 06:17:46;;;;;;;13.30;8.10;;;;;;;;;;5012615;28;20064;-90
2023/05/01 06:20:13;;;;;;;15.05;9.07;;;;;;;;;;5013671;28;20061;-90
2023/05/01 06:22:40;;;;;;;15.13;9.20;;;;;;;;;;5012380;28;20068;-90
2023/05/01 06:25:08;;;;;;;15.73;8.68;;;;;;;;;;5012699;28;20067;-91
2023/05/01 06:27:35;;;;;;;12.95;8.27;;;;;;;;;;5009835;28;20152;-90
2023/05/01 06:30:03;;;;;;;14.45;8.23;;;;;;;;;;5013783;28;20060;-90
2023/05/01 06:32:30;;;;;;;15.35;8.75;;;;;;;;;;5014019;28;20054;-88
2023/05/01 06:34:57;;;;;;;15.60;9.20;;;;;;;;;;5014492;28;20136;-91
2023/05/01 06:37:24;;;;;;;14.57;9.32;;;;;;;;;;5013446;28;20054;-90
2023/05/01 06:39:51;;;;;;;16.15;9.20;;;;;;;;;;5012738;28;20058;-90
2023/05/01 06:42:20;;;;;;;18.83;9.82;;;;;;;;;;5012129;28;20050;-89
2023/05/01 06:44:47;;;;;;;15.48;10.23;;;;;;;;;;5012896;28;20438;-88
2023/05/01 06:47:14;;;;;;;20.40;10.82;;;;;;;;;;5023130;28;20077;-88
2023/05/01 06:49:42;;;;;;;17.65;9.75;;;;;;;;;;5016938;28;20057;-88
2023/05/01 06:52:10;;;;;;;18.27;11.05;;;;;;;;;;5016643;28;20058;-88
2023/05/01 06:54:37;;;;;;;26.38;12.63;;;;;;;;;;5016230;28;20060;-88
2023/05/01 06:57:04;;;;;;;20.83;10.43;;;;;;;;;;5016665;28;20128;-88
2023/05/01 06:59:32;;;;;;;45.55;11.00;;;;;;;;;;5017035;28;20053;-89
2023/05/01 07:01:59;;;;;;;29.42;11.15;;;;;;;;;;5016165;28;20058;-88
2023/05/01 07:04:27;;;;;;;21.48;11.52;;;;;;;;;;5015901;28;20469;-87
2023/05/01 07:06:54;;;;;;;30.13;11.93;;;;;;;;;;5016128;28;20052;-88
2023/05/01 07:09:21;;;;;;;29.13;10.02;;;;;;;;;;5015889;28;20554;-88
2023/05/01 07:11:48;;;;;;;24.00;9.23;;;;;;;;;;5017009;28;20049;-88
2023/05/01 07:14:16;;;;;;;24.17;9.02;;;;;;;;;;5017142;28;20152;-88
2023/05/01 07:16:43;;;;;;;33.17;8.88;;;;;;;;;;5015823;28;20049;-88
2023/05/01 07:19:12;;;;;;;25.38;8.35;;;;;;;;;;5016832;28;20054;-88
2023/05/01 07:21:40;;;;;;;35.63;10.00;;;;;;;;;;5015419;28;20062;-88
2023/05/01 07:24:08;;;;;;;28.23;9.00;;;;;;;;;;5015259;28;20060;-89
2023/05/01 07:26:37;;;;;;;18.52;8.35;;;;;;;;;;5015719;28;20058;-88
2023/05/01 07:29:04;;;;;;;21.05;8.45;;;;;;;;;;5016859;28;20049;-88
2023/05/01 07:31:32;;;;;;;21.23;8.25;;;;;;;;;;5015479;28;20060;-87
2023/05/01 07:33:59;;;;;;;24.25;7.90;;;;;;;;;;5015420;28;20125;-88
2023/05/01 07:36:27;;;;;;;27.08;8.27;;;;;;;;;;5015446;28;20046;-88
2023/05/01 07:38:55;;;;;;;25.35;8.88;;;;;;;;;;5015287;28;20045;-89
2023/05/01 07:41:24;;;;;;;22.55;7.55;;;;;;;;;;5015460;28;20054;-88
2023/05/01 07:43:51;;;;;;;36.00;8.27;;;;;;;;;;5015256;28;20056;-88
2023/05/01 07:46:19;;;;;;;14.30;6.47;;;;;;;;;;5015128;28;20129;-89
2023/05/01 07:48:46;;;;;;;18.25;7.60;;;;;;;;;;5015476;28;20049;-88
2023/05/01 07:51:13;;;;;;;14.23;6.55;;;;;;;;;;5015169;28;20065;-89
2023/05/01 07:53:41;;;;;;;17.10;6.53;;;;;;;;;;5015261;28;20104;-88
2023/05/01 07:56:08;;;;;;;11.63;6.47;;;;;;;;;;5015110;28;20054;-89
2023/05/01 07:58:36;;;;;;;8.98;6.13;;;;;;;;;;5014570;28;20046;-88
2023/05/01 08:01:05;;;;;;;16.77;5.95;;;;;;;;;;5017619;28;20611;-90
2023/05/01 08:03:32;;;;;;;10.88;6.38;;;;;;;;;;5015436;28;20145;-89
2023/05/01 08:05:59;;;;;;;11.40;5.57;;;;;;;;;;5014732;28;20562;-88
2023/05/01 08:08:27;;;;;;;8.77;5.05;;;;;;;;;;5015081;28;20053;-88
2023/05/01 08:10:55;;;;;;;9.52;5.30;;;;;;;;;;5015094;28;20052;-88
2023/05/01 08:13:22;;;;;;;12.20;5.78;;;;;;;;;;5014394;28;20065;-88
2023/05/01 08:15:49;;;;;;;9.73;5.47;;;;;;;;;;5015731;28;20057;-89
2023/05/01 08:18:19;;;;;;;10.00;5.90;;;;;;;;;;5014589;28;20104;-89
2023/05/01 08:20:48;;;;;;;11.32;5.47;;;;;;;;;;5014977;28;20050;-89
2023/05/01 08:23:18;;;;;;;7.80;4.35;;;;;;;;;;5014574;28;20093;-89
2023/05/01 08:25:45;;;;;;;8.00;4.80;;;;;;;;;;5014502;28;20052;-90
2023/05/01 08:28:14;;;;;;;5.07;3.83;;;;;;;;;;5014374;28;20501;-89
2023/05/01 08:30:41;;;;;;;8.18;4.07;;;;;;;;;;5014665;28;20042;-89
2023/05/01 08:33:08;;;;;;;9.45;4.35;;;;;;;;;;5015722;28;20052;-89
2023/05/01 08:35:35;;;;;;;5.60;3.70;;;;;;;;;;5014686;28;20046;-89
2023/05/01 08:38:02;;;;;;;5.30;3.83;;;;;;;;;;5014734;28;20060;-88
2023/05/01 08:40:31;;;;;;;4.85;3.47;;;;;;;;;;5014519;28;20050;-90
2023/05/01 08:43:02;;;;;;;5.35;2.97;;;;;;;;;;5015422;28;20057;-90
2023/05/01 08:45:34;;;;;;;5.15;3.22;;;;;;;;;;5014779;28;20042;-89
2023/05/01 08:48:05;;;;;;;3.40;3.10;;;;;;;;;;5014762;28;20126;-90
2023/05/01 08:50:37;;;;;;;5.22;2.85;;;;;;;;;;5014141;28;20457;-89
2023/05/01 08:53:05;;;;;;;4.93;3.42;;;;;;;;;;5014402;28;20050;-88
2023/05/01 08:55:34;;;;;;;4.30;2.75;;;;;;;;;;5015256;28;20077;-90
2023/05/01 08:58:02;;;;;;;5.25;2.75;;;;;;;;;;5015168;28;20050;-89
2023/05/01 09:00:30;;;;;;;3.67;3.03;;;;;;;;;;5014272;28;20494;-88
2023/05/01 09:03:00;;;;;;;4.63;3.40;;;;;;;;;;5013729;28;20186;-88
2023/05/01 09:05:30;;;;;;;6.50;4.65;;;;;;;;;;5015065;28;20107;-89
2023/05/01 09:07:58;;;;;;;7.38;4.82;;;;;;;;;;5012527;28;20490;-89
2023/05/01 09:10:26;;;;;;;5.28;3.80;;;;;;;;;;5013156;28;20418;-88
2023/05/01 09:12:57;;;;;;;4.82;4.32;;;;;;;;;;5013073;28;20053;-89
2023/05/01 09:15:29;;;;;;;8.57;5.00;;;;;;;;;;5017858;28;20237;-89
2023/05/01 09:17:59;;;;;;;5.75;4.15;;;;;;;;;;5013493;28;20410;-90
2023/05/01 09:20:31;;;;;;;5.53;4.15;;;;;;;;;;5014148;28;20057;-88
2023/05/01 09:22:58;;;;;;;5.70;4.15;;;;;;;;;;5014336;28;20065;-89
2023/05/01 09:25:26;;;;;;;5.63;3.97;;;;;;;;;;5013981;28;20137;-89
2023/05/01 09:27:53;;;;;;;7.13;4.10;;;;;;;;;;5014674;28;20050;-89
2023/05/01 09:30:31;;;;;;;6.63;3.75;;;;;;;;;;5013870;28;20061;-89
2023/05/01 09:33:07;;;;;;;5.82;3.75;;;;;;;;;;5013750;28;20049;-89
2023/05/01 09:35:51;;;;;;;6.25;4.30;;;;;;;;;;5013563;28;20484;-89
2023/05/01 09:38:19;;;;;;;5.50;3.78;;;;;;;;;;5015264;28;20050;-88
2023/05/01 09:40:46;;;;;;;3.50;2.75;;;;;;;;;;5013279;28;20395;-89
2023/05/01 09:43:13;;;;;;;3.85;2.70;;;;;;;;;;5012848;28;20061;-90
2023/05/01 09:45:41;;;;;;;5.50;2.80;;;;;;;;;;5014480;28;20042;-90
2023/05/01 09:48:10;;;;;;;8.05;2.35;;;;;;;;;;5013488;28;20060;-88
2023/05/01 09:50:41;;;;;;;1.92;1.80;;;;;;;;;;5013524;28;20046;-90
2023/05/01 09:53:10;;;;;;;4.05;2.00;;;;;;;;;;5013490;28;20056;-89
2023/05/01 09:55:37;;;;;;;2.35;2.15;;;;;;;;;;5014319;28;20092;-88
2023/05/01 09:58:05;;;;;;;3.50;2.28;;;;;;;;;;5013286;28;20084;-87
2023/05/01 10:00:47;;;;;;;3.28;2.10;;;;;;;;;;5014043;28;20058;-87
2023/05/01 10:03:14;;;;;;;3.08;2.00;;;;;;;;;;5013252;28;20053;-88
2023/05/01 10:05:45;;;;;;;2.85;1.92;;;;;;;;;;5013371;28;20120;-87
2023/05/01 10:08:13;;;;;;;3.95;1.75;;;;;;;;;;5013226;28;20097;-84
2023/05/01 10:10:45;;;;;;;2.45;1.73;;;;;;;;;;5014423;28;20078;-89
2023/05/01 10:13:16;;;;;;;1.90;1.60;;;;;;;;;;5013852;28;20060;-91
2023/05/01 10:15:49;;;;;;;4.97;2.03;;;;;;;;;;5013034;28;20073;-88
2023/05/01 10:18:16;;;;;;;3.67;3.05;;;;;;;;;;5012935;28;20057;-87
2023/05/01 10:20:44;;;;;;;14.77;3.20;;;;;;;;;;5012252;28;20108;-88
2023/05/01 10:23:11;;;;;;;2.67;1.42;;;;;;;;;;5013207;28;20056;-88
2023/05/01 10:25:39;;;;;;;5.05;1.85;;;;;;;;;;5012772;28;20076;-89
2023/05/01 10:28:08;;;;;;;9.50;5.32;;;;;;;;;;5013943;28;20045;-89
2023/05/01 10:30:37;;;;;;;6.47;3.63;;;;;;;;;;5016619;28;20076;-89
2023/05/01 10:33:04;;;;;;;19.35;8.73;;;;;;;;;;5013159;28;20062;-89
2023/05/01 10:35:33;;;;;;;5.05;2.55;;;;;;;;;;5017196;28;20414;-89
2023/05/01 10:38:22;;;;;;;32.70;14.00;;;;;;;;;;5012659;28;20475;-88
2023/05/01 10:40:50;;;;;;;3.72;2.63;;;;;;;;;;5012791;28;20096;-88
2023/05/01 10:43:19;;;;;;;7.40;4.43;;;;;;;;;;5012315;28;20085;-89
2023/05/01 10:45:47;;;;;;;7.28;3.28;;;;;;;;;;5012864;28;20046;-89
2023/05/01 10:48:35;;;;;;;5.82;4.05;;;;;;;;;;5013756;28;20137;-89
2023/05/01 10:51:10;;;;;;;18.45;9.60;;;;;;;;;;5013615;28;20046;-89
2023/05/01 10:53:41;;;;;;;37.33;18.77;;;;;;;;;;5013465;28;20478;-89
2023/05/01 10:56:27;;;;;;;28.77;13.52;;;;;;;;;;5012490;28;20057;-91
2023/05/01 10:59:03;;;;;;;5.25;3.53;;;;;;;;;;5012930;28;20054;-86
2023/05/01 11:01:41;;;;;;;52.80;28.67;;;;;;;;;;5013343;28;20054;-90
2023/05/01 11:04:26;;;;;;;9.02;5.03;;;;;;;;;;5012311;28;20049;-88
2023/05/01 11:07:03;;;;;;;12.80;6.63;;;;;;;;;;5012487;28;20054;-89
2023/05/01 11:09:38;;;;;;;14.43;9.23;;;;;;;;;;5012444;28;20478;-89
2023/05/01 11:12:06;;;;;;;3.05;2.53;;;;;;;;;;5012574;28;20046;-89
2023/05/01 11:14:52;;;;;;;37.20;22.48;;;;;;;;;;5012061;28;20053;-88
2023/05/01 11:17:38;;;;;;;7.50;2.97;;;;;;;;;;5012441;28;20049;-87
2023/05/01 11:20:26;;;;;;;5.03;4.15;;;;;;;;;;5012247;28;20512;-88
2023/05/01 11:22:53;;;;;;;2.92;2.65;;;;;;;;;;5011864;28;20056;-87
2023/05/01 11:25:22;;;;;;;2.40;2.20;;;;;;;;;;5012288;28;20049;-88
2023/05/01 11:27:51;;;;;;;4.38;2.67;;;;;;;;;;5012278;28;20486;-88
2023/05/01 11:30:18;;;;;;;5.00;2.90;;;;;;;;;;5012897;28;20410;-88
2023/05/01 11:32:46;;;;;;;7.90;5.25;;;;;;;;;;5013161;28;20046;-88
2023/05/01 11:35:20;;;;;;;2.25;2.05;;;;;;;;;;5015369;28;20053;-87
2023/05/01 11:37:50;;;;;;;5.07;2.50;;;;;;;;;;5016949;28;20045;-88
2023/05/01 11:40:21;;;;;;;2.92;2.10;;;;;;;;;;5015569;28;20060;-87
2023/05/01 11:42:49;;;;;;;2.78;1.58;;;;;;;;;;5018454;28;20049;-87
2023/05/01 11:45:16;;;;;;;2.15;1.70;;;;;;;;;;5022303;28;20049;-88
2023/05/01 11:47:44;;;;;;;3.10;2.05;;;;;;;;;;5015990;28;20415;-89
2023/05/01 11:50:11;;;;;;;2.25;2.00;;;;;;;;;;5016657;28;20050;-89
2023/05/01 11:52:47;;;;;;;2.97;1.70;;;;;;;;;;5015524;28;20129;-89
2023/05/01 11:55:15;;;;;;;4.18;2.25;;;;;;;;;;5015645;28;20062;-88
2023/05/01 11:57:50;;;;;;;4.22;2.30;;;;;;;;;;5015702;28;20606;-88
2023/05/01 12:00:28;;;;;;;3.67;2.10;;;;;;;;;;5015430;28;20145;-88
2023/05/01 12:03:03;;;;;;;2.67;1.90;;;;;;;;;;5015219;28;20050;-88
2023/05/01 12:05:31;;;;;;;3.67;2.17;;;;;;;;;;5016162;28;20105;-88
2023/05/01 12:08:18;;;;;;;2.72;2.38;;;;;;;;;;5015538;28;20050;-88
2023/05/01 12:10:46;;;;;;;2.03;1.83;;;;;;;;;;5014754;28;20062;-88
2023/05/01 12:13:15;;;;;;;2.35;2.00;;;;;;;;;;5014790;28;20468;-88
2023/05/01 12:15:45;;;;;;;3.38;1.88;;;;;;;;;;5014633;28;20384;-87
2023/05/01 12:18:13;;;;;;;2.97;2.22;;;;;;;;;;5014701;28;20056;-88
2023/05/01 12:20:41;;;;;;;6.38;2.60;;;;;;;;;;5014928;28;20127;-87
2023/05/01 12:23:10;;;;;;;2.40;2.10;;;;;;;;;;5014336;28;20057;-88
2023/05/01 12:25:38;;;;;;;4.95;2.33;;;;;;;;;;5014786;28;20088;-88
2023/05/01 12:28:10;;;;;;;5.30;2.50;;;;;;;;;;5015604;28;20152;-89
2023/05/01 12:30:37;;;;;;;3.35;2.45;;;;;;;;;;5014459;28;20414;-88
2023/05/01 12:33:09;;;;;;;3.90;2.33;;;;;;;;;;5014274;28;20046;-87
2023/05/01 12:35:36;;;;;;;6.05;2.10;;;;;;;;;;5014236;28;20096;-87
2023/05/01 12:38:22;;;;;;;2.55;2.20;;;;;;;;;;5015352;28;20429;-88
2023/05/01 12:40:51;;;;;;;4.65;2.33;;;;;;;;;;5014508;28;20050;-89
2023/05/01 12:43:29;;;;;;;4.50;2.03;;;;;;;;;;5014023;28;20050;-88
2023/05/01 12:45:56;;;;;;;4.93;2.28;;;;;;;;;;5013875;28;20050;-89
2023/05/01 12:48:24;;;;;;;3.20;2.13;;;;;;;;;;5014101;28;20058;-88
2023/05/01 12:50:54;;;;;;;2.17;1.77;;;;;;;;;;5015367;28;20053;-89
2023/05/01 12:53:26;;;;;;;3.95;2.13;;;;;;;;;;5014032;28;20089;-88
2023/05/01 12:55:55;;;;;;;3.80;1.88;;;;;;;;;;5013918;28;20061;-88
2023/05/01 12:58:22;;;;;;;5.50;2.05;;;;;;;;;;5023123;28;20046;-89
2023/05/01 13:00:54;;;;;;;2.35;2.03;;;;;;;;;;5015641;28;20057;-88
2023/05/01 13:03:23;;;;;;;16.70;7.25;;;;;;;;;;5014695;28;20414;-88
2023/05/01 13:05:57;;;;;;;2.40;2.20;;;;;;;;;;5014896;28;20108;-88
2023/05/01 13:08:26;;;;;;;5.13;2.58;;;;;;;;;;5014781;28;20049;-88
2023/05/01 13:10:54;;;;;;;3.67;2.40;;;;;;;;;;5015065;28;20497;-88
2023/05/01 13:13:24;;;;;;;4.32;2.63;;;;;;;;;;5014571;28;20510;-89
2023/05/01 13:15:52;;;;;;;49.30;5.82;;;;;;;;;;5013604;28;20054;-89
2023/05/01 13:18:19;;;;;;;5.32;2.63;;;;;;;;;;5013606;28;20046;-88
2023/05/01 13:20:46;;;;;;;3.72;2.40;;;;;;;;;;5013904;28;20482;-87
2023/05/01 13:23:13;;;;;;;4.90;2.67;;;;;;;;;;5012849;28;20054;-88
2023/05/01 13:25:41;;;;;;;7.05;2.58;;;;;;;;;;5013757;28;20049;-88
2023/05/01 13:28:10;;;;;;;5.30;2.53;;;;;;;;;;5013379;28;20056;-88
2023/05/01 13:30:38;;;;;;;4.13;2.33;;;;;;;;;;5013785;28;20129;-87
2023/05/01 13:33:06;;;;;;;4.00;2.28;;;;;;;;;;5013517;28;20053;-87
2023/05/01 13:35:34;;;;;;;6.28;2.80;;;;;;;;;;5014362;28;20123;-88
2023/05/01 13:38:03;;;;;;;2.90;2.65;;;;;;;;;;5014435;28;20516;-87
2023/05/01 13:40:33;;;;;;;2.47;2.33;;;;;;;;;;5013373;28;20140;-88
2023/05/01 13:43:01;;;;;;;2.92;2.28;;;;;;;;;;5015421;28;20050;-88
2023/05/01 13:45:28;;;;;;;4.38;2.78;;;;;;;;;;5013690;28;20072;-88
2023/05/01 13:47:55;;;;;;;2.47;2.28;;;;;;;;;;5012983;28;20042;-88
2023/05/01 13:50:23;;;;;;;14.52;3.67;;;;;;;;;;5013282;28;20562;-88
2023/05/01 13:52:50;;;;;;;6.07;2.53;;;;;;;;;;5012991;28;20042;-89
2023/05/01 13:55:17;;;;;;;4.65;2.28;;;;;;;;;;5012982;28;20060;-88
2023/05/01 13:57:45;;;;;;;7.07;2.67;;;;;;;;;;5012576;28;20050;-89
2023/05/01 14:00:16;;;;;;;2.55;2.22;;;;;;;;;;5013172;28;20077;-89
2023/05/01 14:02:46;;;;;;;2.53;2.30;;;;;;;;;;5013109;28;20129;-88
2023/05/01 14:05:15;;;;;;;2.55;1.95;;;;;;;;;;5012952;28;20073;-88
2023/05/01 14:07:50;;;;;;;2.67;2.40;;;;;;;;;;5013138;28;20505;-88
2023/05/01 14:10:17;;;;;;;3.50;2.30;;;;;;;;;;5013229;28;20332;-88
2023/05/01 14:12:45;;;;;;;2.47;2.22;;;;;;;;;;5015880;28;20050;-88
2023/05/01 14:15:12;;;;;;;2.10;2.00;;;;;;;;;;5014359;28;20418;-88
2023/05/01 14:17:39;;;;;;;2.80;2.08;;;;;;;;;;5012790;28;20046;-87
2023/05/01 14:20:07;;;;;;;2.70;2.00;;;;;;;;;;5010578;28;20080;-88
2023/05/01 14:22:42;;;;;;;3.60;2.53;;;;;;;;;;5012589;28;20521;-87
2023/05/01 14:25:25;;;;;;;3.88;2.45;;;;;;;;;;5013808;28;20053;-88
2023/05/01 14:27:53;;;;;;;2.42;2.17;;;;;;;;;;5013891;28;20046;-87
2023/05/01 14:30:25;;;;;;;2.67;2.22;;;;;;;;;;5012551;28;20054;-88
2023/05/01 14:32:52;;;;;;;3.35;2.17;;;;;;;;;;5012908;28;20413;-88
2023/05/01 14:35:20;;;;;;;4.15;2.25;;;;;;;;;;5012658;28;20100;-88
2023/05/01 14:37:48;;;;;;;3.67;2.03;;;;;;;;;;5012652;28;20133;-91
2023/05/01 14:40:17;;;;;;;2.28;2.05;;;;;;;;;;5012717;28;20054;-89
2023/05/01 14:42:45;;;;;;;5.55;2.30;;;;;;;;;;5012579;28;20076;-87
2023/05/01 14:45:14;;;;;;;3.20;1.90;;;;;;;;;;5013609;28;20058;-90